createdAt,value
2018-04-11T00:01:48.765Z,4.72
2018-04-11T00:04:17.102Z,4.24
2018-04-11T00:06:45.418Z,4.90
2018-04-11T00:09:13.766Z,4.32
2018-04-11T00:11:42.083Z,4.54
2018-04-11T00:14:10.419Z,4.60
2018-04-11T00:16:38.752Z,4.10
2018-04-11T00:19:07.104Z,4.76
2018-04-11T00:21:35.413Z,4.90
2018-04-11T00:24:02.988Z,4.46
2018-04-11T00:26:31.301Z,4.10
2018-04-11T00:28:59.637Z,5.20
2018-04-11T00:31:27.963Z,4.40
2018-04-11T00:33:56.293Z,4.48
2018-04-11T00:36:24.604Z,4.64
2018-04-11T00:38:52.960Z,4.74
2018-04-11T00:41:21.265Z,4.62
2018-04-11T00:43:49.594Z,4.80
2018-04-11T00:46:17.917Z,4.82
2018-04-11T00:48:46.259Z,4.42
2018-04-11T00:51:14.579Z,4.60
2018-04-11T00:53:42.909Z,5.20
2018-04-11T00:56:11.222Z,4.38
2018-04-11T00:58:39.569Z,4.66
2018-04-11T01:01:07.883Z,5.20
2018-04-11T01:03:36.215Z,4.70
2018-04-11T01:06:04.525Z,4.64
2018-04-11T01:08:32.857Z,4.80
2018-04-11T01:11:01.165Z,4.96
2018-04-11T01:13:29.477Z,4.60
2018-04-11T01:15:57.805Z,4.16
2018-04-11T01:18:26.127Z,4.80
2018-04-11T01:20:54.464Z,4.58
2018-04-11T01:23:22.789Z,4.70
2018-04-11T01:25:51.117Z,4.68
2018-04-11T01:28:19.442Z,4.70
2018-04-11T01:30:47.833Z,13.42
2018-04-11T01:33:16.160Z,5.50
2018-04-11T01:35:44.501Z,4.62
2018-04-11T01:38:12.814Z,7.28
2018-04-11T01:40:41.149Z,7.80
2018-04-11T01:43:09.466Z,11.66
2018-04-11T01:45:37.805Z,12.80
2018-04-11T01:48:06.125Z,10.30
2018-04-11T01:50:34.465Z,7.02
2018-04-11T01:53:02.800Z,4.36
2018-04-11T01:55:31.141Z,4.42
2018-04-11T01:57:59.453Z,4.32
2018-04-11T02:00:27.786Z,4.52
2018-04-11T02:02:56.099Z,4.70
2018-04-11T02:05:24.433Z,4.66
2018-04-11T02:07:52.746Z,4.64
2018-04-11T02:10:21.073Z,4.56
2018-04-11T02:12:49.387Z,4.64
2018-04-11T02:15:17.729Z,3.72
2018-04-11T02:17:46.039Z,4.58
2018-04-11T02:20:14.375Z,3.48
2018-04-11T02:22:42.682Z,4.10
2018-04-11T02:25:11.022Z,3.68
2018-04-11T02:27:39.329Z,4.14
2018-04-11T02:30:07.657Z,3.96
2018-04-11T02:32:35.975Z,4.08
2018-04-11T02:35:04.315Z,3.96
2018-04-11T02:37:32.636Z,4.00
2018-04-11T02:40:00.969Z,3.62
2018-04-11T02:42:29.284Z,3.80
2018-04-11T02:44:57.621Z,3.94
2018-04-11T02:47:25.933Z,3.50
2018-04-11T03:01:19.626Z,3.60
2018-04-11T03:03:47.939Z,4.06
2018-04-11T03:06:16.280Z,3.42
2018-04-11T03:08:44.597Z,3.70
2018-04-11T03:11:12.937Z,3.44
2018-04-11T03:13:41.250Z,3.90
2018-04-11T03:16:09.590Z,3.82
2018-04-11T03:18:37.902Z,3.44
2018-04-11T03:21:06.242Z,3.70
2018-04-11T03:23:34.550Z,3.60
2018-04-11T03:26:02.889Z,4.26
2018-04-11T03:28:31.208Z,3.58
2018-04-11T03:30:59.555Z,3.22
2018-04-11T03:33:27.881Z,3.60
2018-04-11T03:35:56.223Z,3.42
2018-04-11T03:38:24.533Z,3.80
2018-04-11T03:40:52.877Z,4.30
2018-04-11T03:43:21.189Z,4.16
2018-04-11T03:45:49.517Z,3.92
2018-04-11T03:48:17.825Z,3.50
2018-04-11T03:50:46.209Z,3.68
2018-04-11T03:53:14.514Z,3.60
2018-04-11T03:55:42.851Z,3.62
2018-04-11T03:58:11.161Z,3.38
2018-04-11T04:00:39.508Z,3.62
2018-04-11T04:03:07.818Z,3.60
2018-04-11T04:05:36.135Z,3.88
2018-04-11T04:08:04.465Z,3.72
2018-04-11T04:10:32.776Z,4.08
2018-04-11T04:13:01.103Z,3.48
2018-04-11T04:15:41.225Z,3.70
2018-04-11T04:18:21.386Z,3.62
2018-04-11T04:20:49.775Z,4.26
2018-04-11T04:23:18.134Z,3.42
2018-04-11T04:25:46.459Z,3.60
2018-04-11T04:28:14.785Z,3.36
2018-04-11T04:30:43.093Z,3.56
2018-04-11T04:33:11.422Z,3.32
2018-04-11T04:35:39.739Z,3.46
2018-04-11T04:38:08.069Z,3.54
2018-04-11T04:40:36.384Z,3.36
2018-04-11T04:43:04.726Z,3.60
2018-04-11T04:45:33.041Z,3.64
2018-04-11T04:48:01.366Z,3.72
2018-04-11T04:50:29.674Z,3.50
2018-04-11T04:52:58.002Z,3.36
2018-04-11T04:55:26.310Z,3.72
2018-04-11T04:57:54.633Z,4.12
2018-04-11T05:00:22.937Z,3.60
2018-04-11T05:02:51.261Z,4.24
2018-04-11T05:05:19.574Z,3.62
2018-04-11T05:07:47.903Z,3.66
2018-04-11T05:10:16.209Z,3.52
2018-04-11T05:12:44.542Z,3.58
2018-04-11T05:15:12.875Z,3.90
2018-04-11T05:17:41.210Z,4.62
2018-04-11T05:20:09.526Z,3.46
2018-04-11T05:22:37.857Z,3.82
2018-04-11T05:25:06.184Z,3.88
2018-04-11T05:27:34.517Z,4.06
2018-04-11T05:30:02.826Z,3.44
2018-04-11T05:32:31.159Z,3.56
2018-04-11T05:34:59.466Z,3.54
2018-04-11T05:37:27.793Z,3.64
2018-04-11T05:39:56.129Z,3.62
2018-04-11T05:42:24.480Z,3.78
2018-04-11T05:44:52.797Z,3.50
2018-04-11T05:47:21.142Z,3.22
2018-04-11T05:49:49.458Z,3.82
2018-04-11T05:52:17.758Z,3.00
2018-04-11T05:54:46.101Z,3.50
2018-04-11T05:57:14.404Z,4.44
2018-04-11T05:59:42.739Z,5.04
2018-04-11T06:02:11.046Z,4.02
2018-04-11T06:04:38.620Z,4.52
2018-04-11T06:07:06.932Z,4.62
2018-04-11T06:09:35.258Z,3.92
2018-04-11T06:12:03.571Z,3.60
2018-04-11T06:14:31.907Z,5.20
2018-04-11T06:17:00.286Z,4.26
2018-04-11T06:19:28.617Z,4.80
2018-04-11T06:21:56.948Z,4.24
2018-04-11T06:24:25.366Z,6.00
2018-04-11T06:26:53.780Z,4.14
2018-04-11T06:29:22.218Z,3.90
2018-04-11T06:31:50.525Z,5.08
2018-04-11T06:34:18.874Z,5.20
2018-04-11T06:36:47.206Z,4.04
2018-04-11T06:39:15.550Z,3.92
2018-04-11T06:41:43.867Z,4.25
2018-04-11T06:44:12.193Z,4.00
2018-04-11T06:46:40.502Z,4.04
2018-04-11T06:49:08.842Z,3.28
2018-04-11T06:51:37.157Z,3.90
2018-04-11T06:54:05.505Z,3.62
2018-04-11T06:56:33.819Z,3.78
2018-04-11T06:59:02.153Z,3.54
2018-04-11T07:01:30.471Z,4.20
2018-04-11T07:03:58.805Z,3.82
2018-04-11T07:06:27.115Z,4.14
2018-04-11T07:08:55.450Z,4.04
2018-04-11T07:11:23.765Z,4.30
2018-04-11T07:13:52.099Z,3.74
2018-04-11T07:16:20.423Z,4.00
2018-04-11T07:18:48.753Z,3.30
2018-04-11T07:21:17.067Z,3.36
2018-04-11T07:23:45.415Z,3.30
2018-04-11T07:26:13.734Z,3.00
2018-04-11T07:28:42.074Z,3.50
2018-04-11T07:31:10.395Z,3.42
2018-04-11T07:33:38.710Z,4.02
2018-04-11T07:36:07.056Z,3.80
2018-04-11T07:38:35.372Z,4.40
2018-04-11T07:41:03.714Z,5.30
2018-04-11T07:43:32.024Z,4.56
2018-04-11T07:46:00.387Z,3.92
2018-04-11T07:48:28.711Z,4.34
2018-04-11T07:50:57.049Z,3.72
2018-04-11T07:53:25.365Z,3.30
2018-04-11T07:55:53.693Z,3.90
2018-04-11T07:58:22.001Z,3.68
2018-04-11T08:00:50.347Z,3.84
2018-04-11T08:03:19.487Z,4.46
2018-04-11T08:05:47.790Z,4.24
2018-04-11T08:08:16.116Z,4.60
2018-04-11T08:10:44.471Z,4.06
2018-04-11T08:13:12.782Z,3.66
2018-04-11T08:15:41.114Z,3.38
2018-04-11T08:18:09.473Z,3.18
2018-04-11T08:20:37.817Z,10.28
2018-04-11T08:23:06.136Z,5.18
2018-04-11T08:25:34.478Z,6.12
2018-04-11T08:28:02.794Z,6.12
2018-04-11T08:30:31.128Z,6.24
2018-04-11T08:32:59.453Z,5.44
2018-04-11T08:35:27.791Z,4.24
2018-04-11T08:37:56.105Z,5.32
2018-04-11T08:40:24.442Z,4.48
2018-04-11T08:42:52.758Z,4.82
2018-04-11T08:45:21.095Z,5.74
2018-04-11T08:47:49.405Z,5.04
2018-04-11T08:50:17.743Z,4.12
2018-04-11T08:52:46.056Z,4.64
2018-04-11T08:55:14.390Z,4.68
2018-04-11T08:57:42.702Z,3.82
2018-04-11T09:00:11.066Z,4.28
2018-04-11T09:02:39.384Z,4.04
2018-04-11T09:05:07.723Z,4.40
2018-04-11T09:07:36.037Z,4.30
2018-04-11T09:10:04.376Z,4.08
2018-04-11T09:12:32.691Z,3.68
2018-04-11T09:15:01.055Z,4.18
2018-04-11T09:17:29.367Z,3.90
2018-04-11T09:19:57.705Z,4.44
2018-04-11T09:22:26.042Z,4.46
2018-04-11T09:24:54.355Z,4.48
2018-04-11T09:27:22.698Z,5.00
2018-04-11T09:29:51.019Z,4.62
2018-04-11T09:32:19.350Z,4.68
2018-04-11T09:34:47.657Z,3.60
2018-04-11T09:37:16.002Z,3.84
2018-04-11T09:39:44.318Z,4.12
2018-04-11T09:42:12.705Z,5.64
2018-04-11T09:44:41.020Z,3.76
2018-04-11T09:47:09.354Z,3.56
2018-04-11T09:49:37.670Z,4.56
2018-04-11T09:52:06.011Z,4.14
2018-04-11T09:54:34.343Z,4.26
2018-04-11T09:57:02.677Z,3.90
2018-04-11T09:59:30.998Z,3.78
2018-04-11T10:01:59.330Z,4.02
2018-04-11T10:04:27.657Z,3.84
2018-04-11T10:06:56.012Z,3.76
2018-04-11T10:09:24.344Z,3.42
2018-04-11T10:11:52.695Z,4.14
2018-04-11T10:14:21.319Z,3.92
2018-04-11T10:16:50.371Z,3.36
2018-04-11T10:19:18.693Z,3.74
2018-04-11T10:21:47.025Z,3.84
2018-04-11T10:24:15.345Z,4.14
2018-04-11T10:26:43.685Z,4.46
2018-04-11T10:29:11.989Z,4.22
2018-04-11T10:31:40.350Z,4.42
2018-04-11T10:34:08.665Z,4.02
2018-04-11T10:36:37.006Z,4.08
2018-04-11T10:39:05.326Z,4.38
2018-04-11T10:41:33.661Z,4.68
2018-04-11T10:44:01.980Z,4.54
2018-04-11T10:46:30.323Z,4.02
2018-04-11T10:48:58.636Z,3.96
2018-04-11T10:51:26.970Z,4.18
2018-04-11T10:53:55.287Z,3.92
2018-04-11T10:56:23.631Z,4.20
2018-04-11T10:58:51.974Z,4.18
2018-04-11T11:01:20.287Z,4.88
2018-04-11T11:03:48.617Z,4.64
2018-04-11T11:06:16.927Z,4.68
2018-04-11T11:08:45.260Z,4.18
2018-04-11T11:11:13.629Z,4.38
2018-04-11T11:13:41.970Z,4.46
2018-04-11T11:16:10.281Z,4.70
2018-04-11T11:18:38.649Z,4.66
2018-04-11T11:21:06.996Z,4.36
2018-04-11T11:23:35.331Z,4.60
2018-04-11T11:26:03.645Z,4.70
2018-04-11T11:28:31.983Z,4.40
2018-04-11T11:31:00.298Z,4.42
2018-04-11T11:33:28.637Z,3.72
2018-04-11T11:35:56.952Z,4.54
2018-04-11T11:38:25.296Z,3.72
2018-04-11T11:40:53.609Z,3.50
2018-04-11T11:43:21.939Z,4.50
2018-04-11T11:45:50.254Z,3.77
2018-04-11T11:48:18.621Z,3.26
2018-04-11T11:50:46.935Z,2.78
2018-04-11T11:53:15.261Z,3.50
2018-04-11T11:55:43.574Z,2.80
2018-04-11T11:58:11.919Z,2.76
2018-04-11T12:00:40.237Z,2.60
2018-04-11T12:03:08.571Z,2.36
2018-04-11T12:05:36.883Z,2.40
2018-04-11T12:08:05.211Z,2.62
2018-04-11T12:10:33.526Z,2.68
2018-04-11T12:13:01.859Z,2.84
2018-04-11T12:15:30.176Z,2.50
2018-04-11T12:17:58.514Z,2.40
2018-04-11T12:20:26.829Z,2.48
2018-04-11T12:22:55.161Z,2.10
2018-04-11T12:25:23.484Z,2.54
2018-04-11T12:27:51.821Z,2.35
2018-04-11T12:30:20.131Z,2.82
2018-04-11T12:32:48.473Z,2.50
2018-04-11T12:35:16.796Z,2.20
2018-04-11T12:37:45.129Z,2.34
2018-04-11T12:40:13.438Z,2.50
2018-04-11T12:42:41.801Z,2.46
2018-04-11T12:45:10.116Z,2.32
2018-04-11T12:47:38.428Z,2.38
2018-04-11T12:50:06.750Z,2.66
2018-04-11T12:52:35.071Z,2.70
2018-04-11T12:55:03.408Z,2.94
2018-04-11T12:57:31.718Z,2.86
2018-04-11T13:00:00.047Z,2.68
2018-04-11T13:02:28.361Z,2.70
2018-04-11T13:04:56.702Z,3.90
2018-04-11T13:07:25.018Z,3.08
2018-04-11T13:09:53.347Z,2.82
2018-04-11T13:12:21.664Z,2.56
2018-04-11T13:14:49.997Z,2.44
2018-04-11T13:17:18.996Z,2.50
2018-04-11T13:19:47.322Z,2.32
2018-04-11T13:22:15.639Z,2.50
2018-04-11T13:24:43.977Z,2.52
2018-04-11T13:27:12.282Z,2.74
2018-04-11T13:29:40.613Z,2.18
2018-04-11T13:32:08.925Z,2.70
2018-04-11T13:34:37.254Z,2.20
2018-04-11T13:37:05.563Z,2.44
2018-04-11T13:39:33.902Z,2.48
2018-04-11T13:42:02.217Z,2.98
2018-04-11T13:44:30.566Z,2.60
2018-04-11T13:46:58.883Z,2.68
2018-04-11T13:49:27.216Z,2.20
2018-04-11T13:51:55.528Z,2.44
2018-04-11T13:54:23.910Z,2.42
2018-04-11T13:56:52.233Z,2.32
2018-04-11T13:59:20.570Z,2.06
2018-04-11T14:01:48.893Z,2.36
2018-04-11T14:04:17.225Z,2.22
2018-04-11T14:06:45.546Z,2.10
2018-04-11T14:09:13.875Z,2.26
2018-04-11T14:11:42.186Z,1.92
2018-04-11T14:14:10.517Z,2.30
2018-04-11T14:16:38.845Z,2.10
2018-04-11T14:19:07.185Z,2.40
2018-04-11T14:21:35.520Z,2.50
2018-04-11T14:24:03.853Z,2.26
2018-04-11T14:26:32.175Z,2.28
2018-04-11T14:29:00.482Z,2.18
2018-04-11T14:33:56.683Z,2.40
2018-04-11T14:36:25.020Z,2.22
2018-04-11T14:38:53.334Z,2.40
2018-04-11T14:43:49.515Z,2.40
2018-04-11T14:51:13.567Z,2.56
2018-04-11T14:53:41.893Z,2.50
2018-04-11T14:56:10.233Z,3.06
2018-04-11T14:58:38.551Z,2.76
2018-04-11T15:01:07.229Z,2.70
2018-04-11T15:03:35.642Z,3.12
2018-04-11T15:06:04.011Z,2.76
2018-04-11T15:08:32.323Z,2.78
2018-04-11T15:11:00.656Z,2.98
2018-04-11T15:13:28.969Z,2.50
2018-04-11T15:15:57.359Z,2.64
2018-04-11T15:18:25.631Z,2.76
2018-04-11T15:20:53.968Z,2.74
2018-04-11T15:23:22.291Z,2.55
2018-04-11T16:20:03.573Z,4.90
2018-04-11T16:24:59.767Z,4.90
2018-04-11T16:27:28.104Z,5.80
2018-04-11T16:29:56.498Z,5.35
2018-04-11T16:32:24.834Z,5.68
2018-04-11T16:34:53.149Z,5.50
2018-04-11T16:37:21.479Z,6.90
2018-04-11T16:39:49.793Z,7.80
2018-04-11T16:42:18.139Z,6.80
2018-04-11T16:44:46.447Z,7.05
2018-04-11T16:47:14.779Z,7.43
2018-04-11T16:49:43.084Z,7.43
2018-04-11T16:54:39.261Z,6.90
2018-04-11T16:57:07.597Z,8.00
2018-04-11T16:59:35.913Z,7.00
2018-04-11T17:02:04.250Z,7.70
2018-04-11T17:04:32.615Z,7.80
2018-04-11T17:07:00.951Z,8.03
2018-04-11T17:09:29.281Z,7.00
2018-04-11T17:11:57.662Z,7.45
2018-04-11T17:16:53.851Z,8.43
2018-04-11T17:19:22.166Z,7.80
2018-04-11T17:22:02.194Z,8.04
2018-04-11T17:24:42.439Z,8.60
2018-04-11T17:29:56.474Z,8.80
2018-04-11T17:32:24.815Z,10.03
2018-04-11T17:34:53.137Z,10.27
2018-04-11T17:37:21.487Z,10.67
2018-04-11T17:42:17.662Z,9.90
2018-04-11T17:44:46.012Z,10.23
2018-04-11T17:47:14.330Z,10.10
2018-04-11T17:49:42.674Z,9.04
2018-04-11T17:52:10.989Z,10.60
2018-04-11T17:57:13.077Z,9.80
2018-04-11T17:59:41.436Z,9.80
2018-04-11T18:02:09.765Z,10.20
2018-04-11T18:04:38.111Z,10.25
2018-04-11T18:07:06.439Z,10.16
2018-04-11T18:12:02.626Z,9.05
2018-04-11T18:14:30.969Z,9.80
2018-04-11T18:16:59.357Z,8.68
2018-04-11T18:19:27.693Z,9.20
2018-04-11T18:21:56.072Z,9.60
2018-04-11T18:24:24.495Z,10.40
2018-04-11T18:26:52.839Z,10.50
2018-04-11T18:31:48.262Z,10.04
2018-04-11T18:34:16.601Z,9.65
2018-04-11T18:36:44.922Z,10.20
2018-04-11T18:39:13.270Z,10.83
2018-04-11T18:44:09.485Z,10.40
2018-04-11T18:46:37.810Z,12.02
2018-04-11T18:49:06.158Z,11.57
2018-04-11T18:51:34.481Z,11.10
2018-04-11T18:54:02.830Z,10.88
2018-04-11T18:56:31.151Z,11.40
2018-04-11T18:58:59.487Z,10.90
2018-04-11T19:01:27.805Z,12.76
2018-04-11T19:03:56.154Z,14.30
2018-04-11T19:06:24.490Z,11.32
2018-04-11T19:08:52.825Z,12.25
2018-04-11T19:11:21.139Z,15.10
2018-04-11T19:13:49.481Z,15.30
2018-04-11T19:16:17.802Z,13.15
2018-04-11T19:18:46.149Z,13.90
2018-04-11T19:21:14.474Z,13.76
2018-04-11T19:23:42.797Z,11.93
2018-04-11T19:26:11.141Z,12.40
2018-04-11T19:28:39.477Z,13.20
2018-04-11T19:31:07.838Z,18.92
2018-04-11T19:33:36.164Z,15.90
2018-04-11T19:36:04.505Z,14.65
2018-04-11T19:38:32.829Z,15.73
2018-04-11T19:41:01.177Z,18.15
2018-04-11T19:43:29.504Z,17.80
2018-04-11T19:45:57.890Z,15.70
2018-04-11T19:48:26.205Z,14.05
2018-04-11T19:50:54.545Z,15.30
2018-04-11T19:53:22.869Z,13.23
2018-04-11T19:55:51.265Z,15.16
2018-04-11T19:58:19.547Z,14.82
2018-04-11T20:00:47.887Z,14.13
2018-04-11T20:03:16.198Z,14.17
2018-04-11T20:05:44.546Z,13.17
2018-04-11T20:08:12.908Z,14.30
2018-04-11T20:10:41.251Z,13.80
2018-04-11T20:15:37.443Z,17.02
2018-04-11T20:18:05.758Z,18.80
2018-04-11T20:20:34.095Z,21.00
2018-04-11T20:23:02.426Z,48.73
2018-04-11T20:25:30.770Z,48.54
2018-04-11T20:27:59.091Z,31.22
2018-04-11T20:30:27.426Z,43.76
2018-04-11T20:32:55.745Z,39.95
2018-04-11T20:35:24.091Z,23.94
2018-04-11T20:37:52.406Z,16.50
2018-04-11T20:40:21.561Z,15.28
2018-04-11T20:42:49.957Z,13.50
2018-04-11T20:45:18.270Z,15.00
2018-04-11T20:47:46.591Z,13.70
2018-04-11T20:50:14.931Z,14.10
2018-04-11T20:52:43.295Z,14.80
2018-04-11T20:55:11.657Z,15.18
2018-04-11T20:57:39.974Z,14.18
2018-04-11T21:00:08.318Z,32.30
2018-04-11T21:02:36.639Z,15.54
2018-04-11T21:05:04.957Z,15.65
2018-04-11T21:07:33.296Z,19.50
2018-04-11T21:10:01.610Z,21.82
2018-04-11T21:12:29.958Z,14.88
2018-04-11T21:14:58.282Z,11.90
2018-04-11T21:17:26.634Z,13.66
2018-04-11T21:19:54.954Z,12.48
2018-04-11T21:22:23.313Z,12.64
2018-04-11T21:24:51.632Z,11.92
2018-04-11T21:27:19.980Z,12.34
2018-04-11T21:29:48.307Z,12.78
2018-04-11T21:32:16.650Z,12.50
2018-04-11T21:34:45.697Z,13.20
2018-04-11T21:37:14.046Z,13.80
2018-04-11T21:39:42.373Z,14.30
2018-04-11T21:42:10.717Z,13.90
2018-04-11T21:44:39.038Z,13.43
2018-04-11T21:47:07.397Z,14.02
2018-04-11T21:49:35.711Z,13.40
2018-04-11T21:52:04.052Z,12.90
2018-04-11T21:54:32.369Z,13.12
2018-04-11T21:57:00.711Z,13.68
2018-04-11T21:59:29.035Z,44.74
2018-04-11T22:04:25.211Z,21.12
2018-04-11T22:06:53.558Z,48.54
2018-04-11T22:11:49.730Z,38.75
2018-04-11T22:14:18.086Z,50.10
2018-04-11T22:16:46.470Z,58.02
2018-04-11T22:19:14.794Z,30.80
2018-04-11T22:21:43.134Z,37.76
2018-04-11T22:24:11.464Z,16.90
2018-04-11T22:26:39.798Z,14.15
2018-04-11T22:29:08.121Z,13.75
2018-04-11T22:31:36.466Z,13.90
2018-04-11T22:34:04.777Z,14.83
2018-04-11T22:36:33.123Z,14.68
2018-04-11T22:39:01.451Z,14.30
2018-04-11T22:41:29.784Z,14.73
2018-04-11T22:43:58.104Z,14.50
2018-04-11T22:48:54.289Z,16.40
2018-04-11T22:51:22.611Z,15.80
2018-04-11T22:53:50.945Z,14.80
2018-04-11T22:56:19.262Z,16.28
2018-04-11T22:58:47.605Z,17.90
2018-04-11T23:01:15.924Z,18.32
2018-04-11T23:03:44.274Z,18.66
2018-04-11T23:08:40.459Z,17.90
2018-04-11T23:11:08.778Z,18.42
2018-04-11T23:13:37.116Z,15.53
2018-04-11T23:16:05.431Z,18.23
2018-04-11T23:18:33.797Z,18.22
2018-04-11T23:21:02.106Z,18.10
2018-04-11T23:23:30.445Z,16.37
2018-04-11T23:30:54.470Z,16.60
2018-04-11T23:33:22.811Z,17.12
2018-04-11T23:35:50.365Z,16.50
2018-04-11T23:38:18.704Z,16.57
2018-04-11T23:40:47.020Z,16.67
2018-04-11T23:43:15.358Z,15.90
2018-04-11T23:45:43.675Z,17.00
2018-04-11T23:48:12.018Z,16.34
2018-04-11T23:53:08.189Z,18.15
2018-04-11T23:55:36.501Z,16.70
2018-04-11T23:58:04.846Z,16.67
